Time;durP1;ratioP1;P1;durP2;ratioP2;P2;SDS_P1;SDS_P2;PMS_P1;PMS_P2;Temp;Humidity;BMP_temperature;BMP_pressure;BME280_temperature;BME280_humidity;BME280_pressure;Samples;Min_cycle;Max_cycle;Signal;HPM_P1;HPM_P2
2022/06/22 00:00:37;;;;;;;6.03;5.43;;;22.50;99.90;;;;;;7376062;19;20767;-38
2022/06/22 00:03:09;;;;;;;6.03;5.30;;;22.50;99.90;;;;;;7375832;19;20412;-39
2022/06/22 00:05:47;;;;;;;6.23;5.10;;;22.40;99.90;;;;;;7380137;19;20379;-39
2022/06/22 00:08:21;;;;;;;5.37;4.87;;;22.50;99.90;;;;;;7375923;19;20368;-39
2022/06/22 00:10:55;;;;;;;5.23;4.77;;;22.30;99.90;;;;;;7380289;19;20363;-39
2022/06/22 00:13:26;;;;;;;6.57;4.33;;;22.50;99.90;;;;;;7371902;19;20854;-39
2022/06/22 00:16:01;;;;;;;6.60;4.97;;;22.50;99.90;;;;;;7371778;19;20443;-39
2022/06/22 00:18:34;;;;;;;7.23;6.63;;;22.40;99.90;;;;;;7375342;19;20371;-37
2022/06/22 00:21:07;;;;;;;5.47;4.80;;;22.30;99.90;;;;;;7376498;19;20413;-39
2022/06/22 00:23:40;;;;;;;7.37;5.80;;;22.30;99.90;;;;;;7377137;19;20424;-39
2022/06/22 00:26:28;;;;;;;6.43;5.57;;;22.40;99.90;;;;;;7374690;19;20427;-39
2022/06/22 00:29:03;;;;;;;8.67;5.33;;;22.40;99.90;;;;;;7380806;19;20377;-39
2022/06/22 00:31:43;;;;;;;6.43;5.83;;;22.20;99.90;;;;;;7376998;19;20403;-39
2022/06/22 00:34:23;;;;;;;5.87;5.37;;;22.30;99.90;;;;;;7375933;19;20413;-39
2022/06/22 00:37:00;;;;;;;6.73;6.13;;;22.20;99.90;;;;;;7376884;19;20940;-40
2022/06/22 00:39:38;;;;;;;7.23;6.63;;;22.20;99.90;;;;;;7372860;19;20376;-39
2022/06/22 00:42:36;;;;;;;8.10;5.60;;;22.20;99.90;;;;;;7376444;19;20917;-42
2022/06/22 00:45:11;;;;;;;10.90;6.70;;;22.00;99.90;;;;;;7375634;19;20775;-43
2022/06/22 00:47:47;;;;;;;5.53;5.03;;;21.90;99.90;;;;;;7370026;19;20466;-42
2022/06/22 00:50:22;;;;;;;7.83;6.30;;;21.90;99.90;;;;;;7372465;19;20376;-43
2022/06/22 00:52:56;;;;;;;10.50;6.50;;;21.90;99.90;;;;;;7374554;19;20388;-42
2022/06/22 00:55:32;;;;;;;8.17;5.70;;;22.10;99.90;;;;;;7374719;19;21025;-42
2022/06/22 00:58:07;;;;;;;7.13;6.47;;;22.20;99.90;;;;;;7373114;19;20390;-42
2022/06/22 01:00:40;;;;;;;6.70;6.10;;;22.20;99.90;;;;;;7373627;19;20372;-42
2022/06/22 01:03:21;;;;;;;9.70;6.30;;;22.00;99.90;;;;;;7370056;19;20391;-42
2022/06/22 01:05:57;;;;;;;6.80;5.77;;;21.90;99.90;;;;;;7376787;19;20746;-41
2022/06/22 01:08:32;;;;;;;7.20;5.90;;;22.00;99.90;;;;;;7377705;19;20415;-42
2022/06/22 01:12:16;;;;;;;7.80;5.90;;;22.10;99.90;;;;;;7370355;19;20909;-43
2022/06/22 01:14:02;;;;;;;8.70;6.40;;;22.30;99.90;;;;;;7379253;19;20405;-45
2022/06/22 01:16:36;;;;;;;7.60;6.50;;;22.70;99.90;;;;;;7372873;19;21068;-43
2022/06/22 01:19:20;;;;;;;6.77;6.07;;;22.90;99.90;;;;;;7370448;19;20372;-43
2022/06/22 01:22:06;;;;;;;7.23;5.77;;;22.90;99.90;;;;;;7351885;19;20392;-44
2022/06/22 01:24:43;;;;;;;6.53;5.83;;;23.10;99.90;;;;;;7373000;19;20447;-43
2022/06/22 01:27:31;;;;;;;8.27;6.67;;;23.10;99.90;;;;;;7374803;19;20912;-43
2022/06/22 01:30:03;;;;;;;6.73;6.10;;;23.10;99.90;;;;;;7371070;19;20797;-43
2022/06/22 01:32:36;;;;;;;8.03;7.07;;;23.00;99.90;;;;;;7372712;19;20384;-43
2022/06/22 01:35:23;;;;;;;6.73;6.13;;;22.70;99.90;;;;;;7372407;19;20957;-43
2022/06/22 01:37:53;;;;;;;6.77;6.27;;;22.40;99.90;;;;;;7377650;19;20379;-41
2022/06/22 01:40:25;;;;;;;7.93;6.63;;;22.40;99.90;;;;;;7372635;19;20818;-43
2022/06/22 01:43:00;;;;;;;7.43;6.60;;;22.40;99.90;;;;;;7372112;19;20748;-43
2022/06/22 01:45:37;;;;;;;6.40;5.83;;;22.10;99.90;;;;;;7370338;19;20372;-42
2022/06/22 01:48:12;;;;;;;7.27;6.57;;;22.00;99.90;;;;;;7372030;19;20757;-43
2022/06/22 01:50:48;;;;;;;9.90;7.03;;;21.80;99.90;;;;;;7373475;19;20419;-39
2022/06/22 01:53:24;;;;;;;7.10;6.40;;;21.60;99.90;;;;;;7374053;19;20372;-39
2022/06/22 01:55:58;;;;;;;7.67;6.90;;;21.80;99.90;;;;;;7368168;19;20364;-39
2022/06/22 01:58:51;;;;;;;7.27;6.67;;;21.80;99.90;;;;;;7373235;19;20407;-39
2022/06/22 02:01:29;;;;;;;9.90;7.60;;;22.00;99.90;;;;;;7368941;19;21023;-39
2022/06/22 02:04:17;;;;;;;11.00;8.07;;;21.80;99.90;;;;;;7364664;19;20425;-39
2022/06/22 02:09:40;;;;;;;9.53;7.50;;;21.80;99.90;;;;;;7372190;19;20399;-39
2022/06/22 02:12:27;;;;;;;7.47;6.77;;;21.70;99.90;;;;;;7373254;19;20494;-39
2022/06/22 02:15:08;;;;;;;13.77;7.67;;;21.70;99.90;;;;;;7367213;19;20980;-39
2022/06/22 02:17:41;;;;;;;7.80;7.10;;;21.60;99.90;;;;;;7358409;19;21163;-39
2022/06/22 02:20:36;;;;;;;12.13;6.90;;;21.80;99.90;;;;;;7370472;19;20389;-42
2022/06/22 02:23:15;;;;;;;7.70;6.87;;;22.00;99.90;;;;;;7370826;19;20427;-42
2022/06/22 02:25:51;;;;;;;7.83;7.03;;;22.10;99.90;;;;;;7370959;19;20380;-43
2022/06/22 02:28:21;;;;;;;9.07;8.17;;;22.10;99.90;;;;;;7372171;19;20387;-42
2022/06/22 02:30:54;;;;;;;9.87;7.40;;;22.20;99.90;;;;;;7373705;19;20389;-42
2022/06/22 02:33:24;;;;;;;9.60;7.00;;;22.10;99.90;;;;;;7370508;19;20385;-42
2022/06/22 02:35:54;;;;;;;7.50;6.47;;;22.30;99.90;;;;;;7370960;19;20920;-42
2022/06/22 02:38:24;;;;;;;9.50;6.80;;;22.20;99.90;;;;;;7371879;19;20368;-43
2022/06/22 02:46:36;;;;;;;6.67;6.17;;;21.90;99.90;;;;;;7373573;19;20429;-43
2022/06/22 02:49:19;;;;;;;8.97;7.67;;;22.30;99.90;;;;;;7371833;19;20372;-42
2022/06/22 02:51:51;;;;;;;7.50;6.70;;;22.20;99.90;;;;;;7373064;19;20372;-42
2022/06/22 02:54:30;;;;;;;9.67;8.50;;;21.90;99.90;;;;;;7365080;19;20395;-42
2022/06/22 02:57:11;;;;;;;11.17;8.20;;;21.80;99.90;;;;;;7374873;19;20380;-42
2022/06/22 02:59:42;;;;;;;10.23;8.13;;;21.70;99.90;;;;;;7366886;19;20420;-42
2022/06/22 03:02:14;;;;;;;8.07;7.20;;;21.70;99.90;;;;;;7357796;19;20380;-42
2022/06/22 03:04:45;;;;;;;9.83;8.87;;;21.80;99.90;;;;;;7363860;19;20405;-43
2022/06/22 03:07:15;;;;;;;9.57;8.50;;;21.80;99.90;;;;;;7363758;19;20376;-43
2022/06/22 03:09:46;;;;;;;9.67;8.77;;;21.70;99.90;;;;;;7369661;19;20405;-42
2022/06/22 03:12:16;;;;;;;9.33;7.77;;;21.50;99.90;;;;;;7372827;19;20932;-42
2022/06/22 03:14:56;;;;;;;9.30;8.40;;;21.50;99.90;;;;;;7373194;19;21254;-42
2022/06/22 03:17:33;;;;;;;10.33;8.50;;;21.80;99.90;;;;;;7365584;19;20484;-42
2022/06/22 03:20:07;;;;;;;9.77;8.73;;;21.80;99.90;;;;;;7369963;19;21170;-39
2022/06/22 03:22:43;;;;;;;9.50;8.70;;;21.70;99.90;;;;;;7371464;19;20902;-39
2022/06/22 03:25:19;;;;;;;10.67;9.27;;;21.60;99.90;;;;;;7359796;19;20485;-39
2022/06/22 03:27:52;;;;;;;10.23;9.13;;;21.40;99.90;;;;;;7358465;19;20390;-39
2022/06/22 03:30:27;;;;;;;9.83;8.40;;;21.30;99.90;;;;;;7356362;19;20455;-38
2022/06/22 03:33:03;;;;;;;9.40;8.40;;;21.40;99.90;;;;;;7366179;19;20408;-38
2022/06/22 03:35:40;;;;;;;9.83;8.63;;;21.40;99.90;;;;;;7369981;19;20352;-39
2022/06/22 03:38:14;;;;;;;10.17;9.10;;;21.50;99.90;;;;;;7369391;19;20823;-39
2022/06/22 03:40:50;;;;;;;11.37;9.60;;;21.40;99.90;;;;;;7375324;19;20746;-39
2022/06/22 03:43:26;;;;;;;9.53;8.63;;;21.30;99.90;;;;;;7372431;19;20383;-39
2022/06/22 03:46:03;;;;;;;11.37;10.20;;;21.10;99.90;;;;;;7370896;19;20403;-38
2022/06/22 03:48:43;;;;;;;11.60;9.57;;;21.10;99.90;;;;;;7377316;19;20368;-38
2022/06/22 03:51:19;;;;;;;11.00;9.90;;;21.00;99.90;;;;;;7380778;19;20383;-42
2022/06/22 03:53:54;;;;;;;9.73;8.73;;;21.00;99.90;;;;;;7378602;19;20379;-42
2022/06/22 03:56:29;;;;;;;9.63;8.73;;;21.10;99.90;;;;;;7381564;19;20755;-42
2022/06/22 03:59:01;;;;;;;9.53;8.63;;;21.40;99.90;;;;;;7373795;19;20379;-43
2022/06/22 04:01:32;;;;;;;9.80;8.90;;;21.70;99.90;;;;;;7352133;19;20983;-42
2022/06/22 04:04:04;;;;;;;10.57;8.50;;;21.90;99.90;;;;;;7355681;19;20372;-42
2022/06/22 04:06:38;;;;;;;9.00;8.13;;;22.10;99.90;;;;;;7377393;19;20937;-44
2022/06/22 04:09:14;;;;;;;9.23;8.33;;;22.10;99.90;;;;;;7359078;19;20413;-43
2022/06/22 04:11:54;;;;;;;9.90;8.90;;;22.10;99.90;;;;;;7377127;19;20884;-43
2022/06/22 04:14:29;;;;;;;9.73;8.63;;;22.00;99.90;;;;;;7379251;19;20415;-43
2022/06/22 04:17:03;;;;;;;10.10;9.10;;;22.00;99.90;;;;;;7347389;19;20921;-42
2022/06/22 04:19:41;;;;;;;10.20;9.10;;;22.00;99.90;;;;;;7355680;19;20404;-43
2022/06/22 04:22:16;;;;;;;9.00;8.07;;;22.10;99.90;;;;;;7351691;19;20708;-44
2022/06/22 04:24:50;;;;;;;9.73;8.80;;;22.00;99.90;;;;;;7371190;19;20441;-43
2022/06/22 04:27:27;;;;;;;8.80;8.03;;;22.10;99.90;;;;;;7380629;19;20412;-43
2022/06/22 04:30:01;;;;;;;9.50;8.60;;;22.10;99.90;;;;;;7352251;19;20812;-42
2022/06/22 04:32:39;;;;;;;13.43;9.50;;;22.20;99.90;;;;;;7346761;19;20386;-43
2022/06/22 04:35:31;;;;;;;11.70;10.50;;;21.90;99.90;;;;;;7374120;19;20551;-44
2022/06/22 04:38:12;;;;;;;10.13;8.87;;;22.00;99.90;;;;;;7365276;19;20420;-43
2022/06/22 04:40:52;;;;;;;9.40;8.40;;;22.00;99.90;;;;;;7370921;19;20923;-43
2022/06/22 04:43:22;;;;;;;8.80;7.93;;;22.00;99.90;;;;;;7372408;19;20421;-44
2022/06/22 04:45:55;;;;;;;11.50;8.50;;;22.00;99.90;;;;;;7373423;19;21662;-43
2022/06/22 04:48:29;;;;;;;11.33;9.63;;;21.90;99.90;;;;;;7354352;19;22706;-44
2022/06/22 04:51:04;;;;;;;10.13;9.10;;;22.00;99.90;;;;;;7354110;19;20377;-44
2022/06/22 04:53:37;;;;;;;12.80;8.57;;;22.10;99.90;;;;;;7346415;19;21178;-43
2022/06/22 04:56:09;;;;;;;9.97;8.97;;;21.90;99.90;;;;;;7364915;19;21013;-43
2022/06/22 04:58:46;;;;;;;10.80;9.60;;;22.10;99.90;;;;;;7368944;19;20785;-43
2022/06/22 05:01:22;;;;;;;9.53;7.97;;;22.10;99.90;;;;;;7365509;19;20424;-43
2022/06/22 05:03:53;;;;;;;11.83;8.87;;;22.30;99.90;;;;;;7373374;19;20391;-43
2022/06/22 05:06:33;;;;;;;10.43;9.23;;;22.50;99.90;;;;;;7364356;19;20395;-43
2022/06/22 05:09:08;;;;;;;10.17;9.17;;;22.70;99.90;;;;;;7335822;19;20452;-43
2022/06/22 05:11:45;;;;;;;14.20;11.03;;;22.80;99.90;;;;;;7345679;19;20379;-44
2022/06/22 05:14:20;;;;;;;11.50;9.27;;;22.90;99.90;;;;;;7356806;19;20930;-43
2022/06/22 05:16:56;;;;;;;10.73;9.13;;;22.80;99.90;;;;;;7362926;19;20372;-44
2022/06/22 05:19:28;;;;;;;9.77;8.77;;;22.80;99.90;;;;;;7367143;19;20368;-43
2022/06/22 05:22:01;;;;;;;9.70;8.20;;;23.00;99.90;;;;;;7378386;19;20419;-44
2022/06/22 05:24:34;;;;;;;12.90;9.17;;;23.00;99.90;;;;;;7365444;19;21243;-43
2022/06/22 05:27:09;;;;;;;11.90;10.10;;;23.20;99.90;;;;;;7370088;19;22020;-43
2022/06/22 05:29:41;;;;;;;15.40;13.93;;;23.20;99.90;;;;;;7365244;19;20840;-43
2022/06/22 05:32:17;;;;;;;10.47;9.10;;;23.40;99.90;;;;;;7350254;19;20373;-43
2022/06/22 05:34:49;;;;;;;10.87;8.70;;;23.40;99.90;;;;;;7364319;19;20380;-43
2022/06/22 05:37:25;;;;;;;16.23;13.10;;;23.50;99.90;;;;;;7373283;19;20467;-43
2022/06/22 05:39:57;;;;;;;13.53;12.10;;;23.70;99.90;;;;;;7350098;19;20940;-43
2022/06/22 05:42:29;;;;;;;10.40;9.30;;;23.80;99.90;;;;;;7358056;19;20429;-44
2022/06/22 05:44:58;;;;;;;12.67;9.20;;;23.90;99.90;;;;;;7361899;19;20404;-43
2022/06/22 05:47:32;;;;;;;13.20;8.70;;;24.10;99.90;;;;;;7370098;19;21034;-43
2022/06/22 05:50:10;;;;;;;10.67;9.63;;;24.30;99.90;;;;;;7347273;19;21637;-40
2022/06/22 05:52:47;;;;;;;10.10;9.00;;;24.30;99.90;;;;;;7374950;19;20412;-40
2022/06/22 05:55:23;;;;;;;11.13;10.03;;;24.00;99.90;;;;;;7352505;19;20371;-40
2022/06/22 05:58:01;;;;;;;9.77;8.77;;;23.60;99.90;;;;;;7357414;19;20956;-40
2022/06/22 06:00:39;;;;;;;9.30;7.93;;;23.60;99.90;;;;;;7352415;19;21037;-40
2022/06/22 06:03:15;;;;;;;8.60;7.80;;;23.70;99.90;;;;;;7368812;19;20403;-40
2022/06/22 06:05:48;;;;;;;9.23;8.27;;;23.80;99.90;;;;;;7361339;19;20391;-40
2022/06/22 06:08:25;;;;;;;9.23;7.90;;;23.90;99.90;;;;;;7374227;19;20380;-40
2022/06/22 06:10:56;;;;;;;11.53;7.50;;;23.90;99.90;;;;;;7349724;19;20416;-40
2022/06/22 06:13:33;;;;;;;8.87;8.07;;;23.80;99.90;;;;;;7356333;19;20451;-41
2022/06/22 06:16:10;;;;;;;10.33;9.33;;;24.00;99.90;;;;;;7344315;19;20572;-40
2022/06/22 06:18:43;;;;;;;12.20;8.43;;;24.10;99.90;;;;;;7355652;19;20364;-40
2022/06/22 06:21:16;;;;;;;8.93;8.13;;;24.30;99.90;;;;;;7354633;19;20970;-40
2022/06/22 06:23:52;;;;;;;9.10;8.20;;;24.20;99.90;;;;;;7362133;19;20424;-41
2022/06/22 06:29:18;;;;;;;10.60;7.67;;;24.20;99.90;;;;;;7343776;19;20462;-39
2022/06/22 06:32:00;;;;;;;8.50;7.60;;;24.30;99.90;;;;;;7347257;19;20380;-42
2022/06/22 06:34:36;;;;;;;10.60;7.90;;;24.30;99.90;;;;;;7360564;19;20849;-43
2022/06/22 06:37:14;;;;;;;9.53;7.83;;;24.40;99.90;;;;;;7363454;19;20387;-39
2022/06/22 06:39:51;;;;;;;9.47;7.80;;;24.50;99.90;;;;;;7362911;19;20415;-39
2022/06/22 06:42:32;;;;;;;8.07;6.40;;;24.40;99.90;;;;;;7346288;19;20525;-40
2022/06/22 06:45:03;;;;;;;11.03;8.60;;;24.50;99.30;;;;;;7360889;19;20952;-39
2022/06/22 06:47:36;;;;;;;11.10;8.73;;;24.60;99.90;;;;;;7341822;19;20424;-40
2022/06/22 06:50:11;;;;;;;11.67;8.97;;;24.50;99.90;;;;;;7332172;19;20419;-40
2022/06/22 06:52:49;;;;;;;10.40;8.27;;;24.40;99.90;;;;;;7352027;19;20384;-39
2022/06/22 06:55:33;;;;;;;11.57;7.87;;;24.40;99.90;;;;;;7342535;19;20414;-40
2022/06/22 06:58:11;;;;;;;8.77;7.83;;;24.60;99.90;;;;;;7336720;19;20851;-39
2022/06/22 07:00:41;;;;;;;9.60;7.73;;;24.50;99.90;;;;;;7350257;19;20416;-42
2022/06/22 07:03:21;;;;;;;9.30;8.40;;;24.40;99.90;;;;;;7371637;19;20449;-44
2022/06/22 07:05:51;;;;;;;10.97;8.73;;;24.40;99.90;;;;;;7367937;19;20397;-43
2022/06/22 07:08:22;;;;;;;10.53;8.33;;;24.40;99.90;;;;;;7369481;19;20415;-43
2022/06/22 07:10:59;;;;;;;12.47;7.63;;;24.40;99.90;;;;;;7372406;19;20384;-43
2022/06/22 07:13:34;;;;;;;11.73;8.17;;;24.50;99.90;;;;;;7343531;19;20408;-42
2022/06/22 07:16:09;;;;;;;8.83;8.03;;;24.50;99.90;;;;;;7374423;19;20380;-42
2022/06/22 07:18:43;;;;;;;9.90;8.10;;;24.40;99.90;;;;;;7372125;19;20491;-41
2022/06/22 07:21:19;;;;;;;9.10;8.30;;;24.20;99.90;;;;;;7372880;19;20960;-43
2022/06/22 07:23:55;;;;;;;10.70;8.70;;;24.20;99.90;;;;;;7379459;19;20414;-43
2022/06/22 07:26:35;;;;;;;8.97;8.07;;;24.20;99.90;;;;;;7378354;19;20386;-42
2022/06/22 07:29:14;;;;;;;10.50;7.53;;;24.10;99.90;;;;;;7354073;19;21579;-42
2022/06/22 07:31:50;;;;;;;11.80;9.83;;;24.00;99.90;;;;;;7354243;19;20393;-44
2022/06/22 07:34:25;;;;;;;11.00;9.17;;;23.80;99.90;;;;;;7375617;19;21277;-44
2022/06/22 07:36:59;;;;;;;14.20;9.60;;;23.70;99.90;;;;;;7380556;19;20416;-43
2022/06/22 07:39:37;;;;;;;13.37;8.83;;;23.60;99.90;;;;;;7378804;19;20402;-43
2022/06/22 07:42:13;;;;;;;9.87;8.77;;;23.60;99.90;;;;;;7383115;19;20372;-43
2022/06/22 07:44:45;;;;;;;9.10;8.30;;;23.60;99.90;;;;;;7351786;19;20925;-44
2022/06/22 07:47:23;;;;;;;9.87;8.33;;;23.50;99.90;;;;;;7377028;19;20436;-44
2022/06/22 07:49:58;;;;;;;12.57;8.80;;;23.60;99.90;;;;;;7378947;19;20379;-44
2022/06/22 07:52:30;;;;;;;8.60;7.70;;;23.80;99.90;;;;;;7357955;19;21074;-44
2022/06/22 07:55:09;;;;;;;10.33;8.83;;;23.90;99.90;;;;;;7367551;19;20461;-43
2022/06/22 07:57:47;;;;;;;10.10;9.00;;;24.20;99.90;;;;;;7346158;19;21305;-44
2022/06/22 08:00:20;;;;;;;7.57;6.87;;;24.20;99.90;;;;;;7346123;19;20404;-40
2022/06/22 08:02:55;;;;;;;11.20;8.50;;;24.30;99.90;;;;;;7363861;19;20424;-40
2022/06/22 08:05:28;;;;;;;9.60;8.70;;;24.40;99.90;;;;;;7357973;19;20383;-41
2022/06/22 08:08:07;;;;;;;9.17;8.40;;;24.20;99.90;;;;;;7356525;19;20387;-40
2022/06/22 08:10:40;;;;;;;12.63;8.53;;;24.00;99.90;;;;;;7353708;19;20422;-40
2022/06/22 08:13:19;;;;;;;11.23;8.80;;;23.70;99.90;;;;;;7341112;19;20401;-40
2022/06/22 08:15:56;;;;;;;10.27;8.40;;;23.60;99.90;;;;;;7346509;19;20471;-40
2022/06/22 08:18:25;;;;;;;9.63;8.73;;;23.40;99.90;;;;;;7366372;19;20376;-40
2022/06/22 08:20:57;;;;;;;8.90;7.93;;;23.30;99.90;;;;;;7365525;19;20364;-40
2022/06/22 08:23:33;;;;;;;13.23;8.97;;;23.20;99.90;;;;;;7349432;19;20424;-41
2022/06/22 08:26:04;;;;;;;12.37;9.40;;;23.30;99.90;;;;;;7356961;19;21282;-38
2022/06/22 08:28:41;;;;;;;17.23;8.43;;;23.20;99.90;;;;;;7336930;19;20408;-40
2022/06/22 08:31:11;;;;;;;10.60;8.87;;;23.20;99.90;;;;;;7351226;19;20364;-39
2022/06/22 08:33:43;;;;;;;12.77;9.63;;;23.10;99.90;;;;;;7362228;19;20384;-40
2022/06/22 08:36:18;;;;;;;14.50;8.77;;;23.20;99.90;;;;;;7366876;19;20409;-38
2022/06/22 08:38:55;;;;;;;17.40;9.10;;;23.00;99.90;;;;;;7374893;19;20392;-40
2022/06/22 08:41:37;;;;;;;11.37;8.90;;;23.00;99.90;;;;;;7362997;19;21033;-41
2022/06/22 08:44:20;;;;;;;12.40;8.40;;;22.90;99.90;;;;;;7362978;19;20416;-40
2022/06/22 08:47:15;;;;;;;10.30;9.30;;;23.10;99.90;;;;;;7370022;19;20447;-40
2022/06/22 08:50:24;;;;;;;9.80;8.17;;;23.40;99.90;;;;;;7371813;19;20413;-40
2022/06/22 08:53:09;;;;;;;9.97;8.47;;;23.60;99.90;;;;;;7369705;19;20437;-40
2022/06/22 08:55:55;;;;;;;12.57;8.90;;;23.60;99.90;;;;;;7366482;19;20412;-40
2022/06/22 08:58:42;;;;;;;12.07;8.73;;;23.60;99.90;;;;;;7374443;19;20443;-40
2022/06/22 09:01:25;;;;;;;8.97;7.73;;;23.40;99.90;;;;;;7376641;19;20937;-43
2022/06/22 09:04:16;;;;;;;8.03;6.47;;;23.50;99.90;;;;;;7372479;19;20425;-44
2022/06/22 09:07:10;;;;;;;11.43;8.80;;;23.80;99.90;;;;;;7373931;19;20425;-42
2022/06/22 09:10:12;;;;;;;9.43;8.50;;;23.90;99.90;;;;;;7377161;19;20731;-43
2022/06/22 09:12:53;;;;;;;8.97;7.87;;;24.10;99.90;;;;;;7374823;19;21029;-42
2022/06/22 09:15:46;;;;;;;10.03;8.73;;;24.20;99.90;;;;;;7377224;19;20415;-42
2022/06/22 09:18:43;;;;;;;9.63;8.60;;;24.20;99.90;;;;;;7375690;19;20384;-42
2022/06/22 09:21:24;;;;;;;11.90;8.60;;;24.20;99.90;;;;;;7374936;19;20400;-42
2022/06/22 09:24:15;;;;;;;7.73;7.03;;;24.20;99.90;;;;;;7374624;19;20474;-42
2022/06/22 09:26:56;;;;;;;9.87;8.87;;;24.30;99.90;;;;;;7374117;19;20380;-42
2022/06/22 09:29:41;;;;;;;12.60;7.67;;;24.30;99.90;;;;;;7376948;19;20420;-41
2022/06/22 09:32:37;;;;;;;8.40;7.60;;;24.30;99.90;;;;;;7374391;19;20383;-41
2022/06/22 09:35:29;;;;;;;9.03;8.13;;;24.60;99.30;;;;;;7364151;19;20372;-43
2022/06/22 09:38:17;;;;;;;8.67;7.80;;;24.60;99.40;;;;;;7364595;19;20378;-41
2022/06/22 09:40:57;;;;;;;8.70;7.80;;;24.60;98.70;;;;;;7361857;19;20396;-42
2022/06/22 09:44:05;;;;;;;12.57;8.90;;;24.60;97.20;;;;;;7364791;19;20364;-41
2022/06/22 09:47:02;;;;;;;9.87;8.83;;;24.60;97.00;;;;;;7335797;19;20424;-42
2022/06/22 09:50:28;;;;;;;10.50;8.87;;;24.80;97.10;;;;;;7362504;19;20412;-39
2022/06/22 09:53:27;;;;;;;10.60;9.33;;;24.90;97.00;;;;;;7367386;19;20415;-40
2022/06/22 09:56:19;;;;;;;11.20;10.10;;;24.20;97.50;;;;;;7373800;19;20421;-39
2022/06/22 09:59:18;;;;;;;11.87;7.43;;;23.80;99.30;;;;;;7373154;19;20471;-39
2022/06/22 10:01:57;;;;;;;12.03;8.80;;;24.20;98.50;;;;;;7373368;19;20439;-39
2022/06/22 10:05:02;;;;;;;8.10;7.30;;;24.30;96.00;;;;;;7371355;19;20909;-39
2022/06/22 10:07:46;;;;;;;11.37;7.27;;;24.60;96.20;;;;;;7375032;19;20408;-40
2022/06/22 10:10:32;;;;;;;13.00;9.37;;;24.80;96.10;;;;;;7377412;19;20380;-39
2022/06/22 10:13:37;;;;;;;10.03;7.47;;;25.00;96.70;;;;;;7378858;19;20388;-39
2022/06/22 10:16:33;;;;;;;9.37;7.77;;;25.10;95.90;;;;;;7376620;19;20384;-40
2022/06/22 10:19:25;;;;;;;8.30;7.47;;;25.10;93.70;;;;;;7373368;19;20910;-39
2022/06/22 10:22:07;;;;;;;10.10;9.00;;;25.10;94.80;;;;;;7376497;19;20793;-40
2022/06/22 10:24:54;;;;;;;7.27;6.57;;;25.10;93.90;;;;;;7370519;19;20395;-39
2022/06/22 10:28:01;;;;;;;9.67;7.60;;;25.10;94.00;;;;;;7376841;19;20380;-40
2022/06/22 10:30:43;;;;;;;9.70;8.77;;;25.10;94.20;;;;;;7376210;19;20407;-39
2022/06/22 10:33:44;;;;;;;11.00;8.93;;;24.90;94.60;;;;;;7375608;19;20858;-39
2022/06/22 10:36:37;;;;;;;11.17;9.10;;;24.20;99.90;;;;;;7376191;19;20409;-39
2022/06/22 10:39:23;;;;;;;13.03;9.63;;;23.60;99.90;;;;;;7373731;19;20384;-39
2022/06/22 10:45:21;;;;;;;15.83;8.80;;;23.50;99.90;;;;;;7354099;19;20447;-43
2022/06/22 10:48:33;;;;;;;10.70;9.63;;;23.90;99.90;;;;;;7364123;19;20436;-43
2022/06/22 10:51:14;;;;;;;11.70;9.97;;;23.60;99.90;;;;;;7344159;19;20423;-41
2022/06/22 10:54:15;;;;;;;13.07;9.73;;;23.00;99.90;;;;;;7355269;19;20389;-41
2022/06/22 10:57:21;;;;;;;12.30;10.03;;;22.80;99.90;;;;;;7352187;19;21396;-42
2022/06/22 11:00:17;;;;;;;9.67;8.67;;;22.60;99.90;;;;;;7364896;19;20391;-42
2022/06/22 11:03:19;;;;;;;8.37;7.43;;;22.50;99.90;;;;;;7370686;19;21428;-42
2022/06/22 11:06:05;;;;;;;10.20;7.80;;;22.30;99.90;;;;;;7368219;19;20372;-43
2022/06/22 11:09:00;;;;;;;9.03;7.37;;;22.70;99.90;;;;;;7373035;19;20384;-42
2022/06/22 11:11:45;;;;;;;8.90;7.50;;;23.00;99.90;;;;;;7369777;19;20364;-43
2022/06/22 11:14:55;;;;;;;8.57;7.77;;;23.00;99.90;;;;;;7373114;19;21036;-43
2022/06/22 11:17:43;;;;;;;8.83;7.90;;;23.00;99.90;;;;;;7370311;19;20408;-44
2022/06/22 11:20:35;;;;;;;8.30;7.50;;;22.80;99.90;;;;;;7368668;19;20380;-43
2022/06/22 11:23:13;;;;;;;10.20;7.87;;;22.90;99.90;;;;;;7366641;19;21035;-43
2022/06/22 11:32:26;;;;;;;9.50;8.40;;;22.50;99.90;;;;;;7365397;19;20767;-47
2022/06/22 11:35:34;;;;;;;9.47;8.53;;;22.70;99.90;;;;;;7352196;19;20997;-45
2022/06/22 11:38:26;;;;;;;8.80;7.90;;;22.80;99.90;;;;;;7362129;19;20436;-45
2022/06/22 11:41:23;;;;;;;10.97;8.83;;;23.00;99.90;;;;;;7368390;19;20372;-45
2022/06/22 11:44:28;;;;;;;9.73;8.70;;;23.30;99.90;;;;;;7369054;19;20433;-45
2022/06/22 11:47:08;;;;;;;10.00;9.00;;;23.60;99.90;;;;;;7369173;19;20432;-47
2022/06/22 11:49:48;;;;;;;9.53;8.03;;;23.70;99.90;;;;;;7368808;19;20741;-46
2022/06/22 11:52:44;;;;;;;13.30;8.00;;;23.80;99.90;;;;;;7367210;19;20433;-45
2022/06/22 11:55:26;;;;;;;9.33;8.30;;;23.90;99.90;;;;;;7358000;19;20468;-45
2022/06/22 11:58:20;;;;;;;8.10;7.27;;;23.90;99.90;;;;;;7366974;19;20391;-46
2022/06/22 12:01:01;;;;;;;9.23;8.43;;;23.80;99.90;;;;;;7362736;19;20380;-46
2022/06/22 12:04:05;;;;;;;9.80;8.80;;;23.70;99.90;;;;;;7366864;19;21231;-46
2022/06/22 12:06:54;;;;;;;9.40;8.47;;;23.60;99.90;;;;;;7362281;19;20395;-46
2022/06/22 12:09:39;;;;;;;9.83;8.93;;;23.80;99.90;;;;;;7365023;19;20380;-45
2022/06/22 12:12:39;;;;;;;9.60;7.53;;;24.10;99.90;;;;;;7367991;19;20620;-45
2022/06/22 12:15:20;;;;;;;11.80;9.10;;;24.40;99.90;;;;;;7358970;19;20793;-45
2022/06/22 12:18:05;;;;;;;9.10;7.67;;;24.70;99.90;;;;;;7366325;19;20380;-45
2022/06/22 12:20:48;;;;;;;12.67;8.77;;;24.70;99.90;;;;;;7353522;19;21111;-42
2022/06/22 12:23:34;;;;;;;8.67;7.03;;;24.90;99.90;;;;;;7349382;19;20409;-41
2022/06/22 12:26:27;;;;;;;10.87;7.20;;;25.10;99.90;;;;;;7360175;19;20420;-41
2022/06/22 12:29:25;;;;;;;11.23;7.70;;;25.50;99.90;;;;;;7371867;19;20372;-40
2022/06/22 12:31:59;;;;;;;10.73;7.07;;;25.60;99.90;;;;;;7369077;19;20825;-41
2022/06/22 12:34:35;;;;;;;8.63;7.20;;;25.30;99.90;;;;;;7361583;19;21073;-42
2022/06/22 12:37:11;;;;;;;8.70;6.30;;;25.50;99.90;;;;;;7375963;19;20386;-42
2022/06/22 12:39:48;;;;;;;6.13;5.10;;;25.60;99.90;;;;;;7361265;19;20380;-42
2022/06/22 12:42:38;;;;;;;10.17;4.70;;;25.70;99.90;;;;;;7366373;19;20697;-41
2022/06/22 12:45:33;;;;;;;8.43;4.10;;;25.90;99.90;;;;;;7369253;19;20851;-42
2022/06/22 12:48:44;;;;;;;8.47;4.03;;;26.00;99.90;;;;;;7363300;19;20580;-42
2022/06/22 12:51:26;;;;;;;8.30;4.50;;;25.90;99.90;;;;;;7369932;19;20709;-42
2022/06/22 12:54:01;;;;;;;8.60;5.07;;;25.90;99.40;;;;;;7366519;19;21051;-42
2022/06/22 12:56:34;;;;;;;8.33;4.00;;;25.90;99.80;;;;;;7373194;19;20415;-42
2022/06/22 12:59:11;;;;;;;7.87;4.00;;;26.00;98.40;;;;;;7347872;19;20417;-43
2022/06/22 13:01:43;;;;;;;9.13;4.80;;;25.90;98.40;;;;;;7362934;19;20380;-41
2022/06/22 13:04:20;;;;;;;10.00;4.43;;;25.70;99.10;;;;;;7364202;19;20451;-42
2022/06/22 13:06:54;;;;;;;6.47;4.23;;;25.70;99.80;;;;;;7362976;19;20376;-42
2022/06/22 13:09:25;;;;;;;6.90;4.17;;;25.80;99.90;;;;;;7366478;19;20720;-42
2022/06/22 13:11:57;;;;;;;6.70;4.17;;;25.60;99.90;;;;;;7362287;19;20372;-42
2022/06/22 13:14:36;;;;;;;15.13;4.83;;;25.80;99.90;;;;;;7358662;19;20457;-42
2022/06/22 13:17:21;;;;;;;13.77;4.50;;;26.10;99.90;;;;;;7346179;19;20782;-42
2022/06/22 13:20:09;;;;;;;7.33;4.17;;;26.30;99.80;;;;;;7357837;19;20745;-45
2022/06/22 13:22:46;;;;;;;6.37;4.70;;;26.40;99.40;;;;;;7365937;19;20437;-45
2022/06/22 13:25:26;;;;;;;7.73;4.40;;;26.50;98.60;;;;;;7367398;19;20376;-46
2022/06/22 13:28:06;;;;;;;9.13;5.10;;;26.70;99.40;;;;;;7366187;19;20418;-46
2022/06/22 13:30:42;;;;;;;14.00;4.93;;;26.70;98.30;;;;;;7364377;19;20395;-46
2022/06/22 13:33:21;;;;;;;7.60;4.10;;;26.30;97.60;;;;;;7365399;19;20487;-45
2022/06/22 13:35:58;;;;;;;11.07;4.50;;;25.90;98.60;;;;;;7364472;19;20395;-45
2022/06/22 13:39:00;;;;;;;10.73;4.70;;;25.80;99.40;;;;;;7362692;19;20966;-48
2022/06/22 13:41:44;;;;;;;6.57;4.20;;;25.60;99.90;;;;;;7370872;19;20423;-45
2022/06/22 13:44:35;;;;;;;8.53;4.60;;;25.40;99.90;;;;;;7366124;19;20431;-46
2022/06/22 13:47:22;;;;;;;8.60;4.63;;;25.50;99.90;;;;;;7357430;19;21078;-42
2022/06/22 13:50:17;;;;;;;17.07;5.67;;;25.40;99.90;;;;;;7364797;19;20997;-42
2022/06/22 13:52:51;;;;;;;10.70;5.13;;;25.20;99.90;;;;;;7370750;19;20421;-42
2022/06/22 13:55:33;;;;;;;9.63;5.03;;;25.20;99.90;;;;;;7364886;19;20379;-41
2022/06/22 13:58:08;;;;;;;10.73;5.17;;;25.30;99.90;;;;;;7365582;19;20428;-41
2022/06/22 14:00:52;;;;;;;13.30;4.80;;;25.60;99.90;;;;;;7366609;19;20895;-44
2022/06/22 14:03:28;;;;;;;58.30;12.43;;;25.70;99.90;;;;;;7353431;19;20376;-46
2022/06/22 14:06:04;;;;;;;228.30;38.23;;;26.00;99.90;;;;;;7367299;19;20392;-45
2022/06/22 14:09:02;;;;;;;11.87;5.13;;;26.40;98.00;;;;;;7364920;19;20442;-45
2022/06/22 14:11:39;;;;;;;7.07;4.73;;;26.60;97.40;;;;;;7345946;19;21289;-45